createdAt,value
2022-11-03T00:03:09.251Z,2.30
2022-11-03T00:13:10.997Z,2.78
2022-11-03T00:18:11.752Z,2.65
2022-11-03T00:23:12.459Z,2.55
2022-11-03T00:28:13.276Z,2.47
2022-11-03T00:33:14.349Z,2.60
2022-11-03T00:38:15.152Z,1.70
2022-11-03T00:43:16.010Z,2.42
2022-11-03T00:48:28.679Z,2.35
2022-11-03T00:53:31.036Z,2.50
2022-11-03T00:58:32.399Z,2.63
2022-11-03T01:03:35.277Z,2.55
2022-11-03T01:08:36.091Z,2.08
2022-11-03T01:13:38.547Z,2.40
2022-11-03T01:18:39.265Z,2.57
2022-11-03T01:23:40.307Z,2.95
2022-11-03T01:28:43.449Z,2.80
2022-11-03T01:33:45.454Z,2.30
2022-11-03T01:38:46.996Z,2.60
2022-11-03T01:44:23.378Z,2.65
2022-11-03T01:50:55.239Z,1.77
2022-11-03T01:55:57.108Z,2.03
2022-11-03T02:00:59.702Z,2.50
2022-11-03T02:06:02.021Z,2.60
2022-11-03T02:12:05.452Z,2.65
2022-11-03T02:17:10.474Z,2.17
2022-11-03T02:30:30.168Z,2.70
2022-11-03T02:36:27.929Z,2.67
2022-11-03T02:41:33.547Z,2.45
2022-11-03T02:46:35.632Z,2.78
2022-11-03T02:51:36.767Z,2.28
2022-11-03T02:56:46.877Z,2.45
2022-11-03T03:02:05.938Z,2.65
2022-11-03T03:07:14.296Z,2.72
2022-11-03T03:12:18.089Z,2.70
2022-11-03T03:17:54.128Z,3.15
2022-11-03T03:22:59.615Z,2.75
2022-11-03T03:28:08.883Z,3.35
2022-11-03T03:33:11.993Z,2.33
2022-11-03T03:38:17.619Z,2.67
2022-11-03T03:43:22.667Z,2.60
2022-11-03T03:48:23.483Z,2.60
2022-11-03T03:53:28.805Z,2.03
2022-11-03T03:58:29.527Z,2.53
2022-11-03T04:03:30.301Z,2.22
2022-11-03T04:08:31.509Z,2.75
2022-11-03T04:13:51.369Z,2.42
2022-11-03T04:19:10.537Z,2.58
2022-11-03T04:24:11.308Z,2.25
2022-11-03T04:29:12.042Z,2.47
2022-11-03T04:34:12.855Z,2.58
2022-11-03T04:39:19.183Z,2.58
2022-11-03T04:44:20.002Z,2.85
2022-11-03T04:49:22.662Z,2.72
2022-11-03T04:54:23.414Z,3.22
2022-11-03T04:59:24.788Z,2.05
2022-11-03T05:04:25.573Z,2.22
2022-11-03T05:09:29.560Z,2.40
2022-11-03T05:14:32.101Z,2.70
2022-11-03T05:19:38.738Z,2.62
2022-11-03T05:24:39.513Z,2.53
2022-11-03T05:29:40.275Z,2.78
2022-11-03T05:34:46.490Z,2.80
2022-11-03T05:39:49.925Z,3.40
2022-11-03T05:44:56.846Z,3.57
2022-11-03T05:50:13.666Z,3.22
2022-11-03T05:55:39.560Z,3.80
2022-11-03T06:00:48.094Z,3.60
2022-11-03T06:05:50.214Z,3.40
2022-11-03T06:10:53.423Z,4.10
2022-11-03T06:15:58.402Z,3.60
2022-11-03T06:21:06.812Z,4.40
2022-11-03T06:26:26.473Z,3.30
2022-11-03T06:31:28.483Z,3.78
2022-11-03T06:36:39.765Z,5.37
2022-11-03T06:41:40.909Z,5.72
2022-11-03T06:46:45.014Z,5.37
2022-11-03T06:51:45.760Z,5.53
2022-11-03T06:56:47.196Z,5.55
2022-11-03T07:01:53.762Z,6.97
2022-11-03T07:07:02.049Z,6.50
2022-11-03T07:12:14.390Z,6.95
2022-11-03T07:17:21.040Z,7.53
2022-11-03T07:22:29.124Z,15.18
2022-11-03T07:27:35.170Z,11.77
2022-11-03T07:32:38.685Z,13.75
2022-11-03T07:37:39.446Z,14.90
2022-11-03T07:42:40.570Z,18.08
2022-11-03T07:47:43.093Z,58.83
2022-11-03T07:52:43.838Z,15.73
2022-11-03T07:57:44.605Z,50.83
2022-11-03T08:02:53.467Z,17.70
2022-11-03T08:07:57.309Z,13.70
2022-11-03T08:12:58.709Z,13.68
2022-11-03T08:17:59.662Z,14.55
2022-11-03T08:23:24.454Z,14.35
2022-11-03T08:28:28.130Z,14.93
2022-11-03T08:33:33.172Z,16.12
2022-11-03T08:38:33.935Z,18.45
2022-11-03T08:43:35.093Z,17.00
2022-11-03T08:48:36.561Z,15.90
2022-11-03T08:53:41.763Z,15.65
2022-11-03T08:58:43.470Z,15.30
2022-11-03T09:03:44.350Z,15.30
2022-11-03T09:14:17.329Z,14.65
2022-11-03T09:19:18.271Z,14.02
2022-11-03T09:24:19.405Z,14.60
2022-11-03T09:29:22.026Z,15.98
2022-11-03T09:34:22.754Z,15.18
2022-11-03T09:39:23.544Z,15.70
2022-11-03T09:44:24.567Z,16.33
2022-11-03T09:49:27.149Z,15.80
2022-11-03T09:54:29.334Z,18.00
2022-11-03T09:59:33.118Z,16.27
2022-11-03T10:04:33.874Z,16.87
2022-11-03T10:09:50.623Z,17.08
2022-11-03T10:14:54.171Z,17.45
2022-11-03T10:19:55.827Z,16.37
2022-11-03T10:25:29.586Z,16.83
2022-11-03T10:30:36.226Z,17.33
2022-11-03T10:35:49.170Z,17.42
2022-11-03T10:40:54.705Z,15.77
2022-11-03T10:51:53.510Z,16.67
2022-11-03T10:56:54.331Z,16.05
2022-11-03T11:01:57.284Z,15.95
2022-11-03T11:12:33.034Z,15.43
2022-11-03T11:17:45.053Z,14.57
2022-11-03T11:22:46.737Z,15.90
2022-11-03T11:27:58.267Z,14.52
2022-11-03T11:33:12.279Z,15.57
2022-11-03T11:38:57.261Z,15.23
2022-11-03T11:44:50.040Z,15.77
2022-11-03T11:53:27.620Z,17.33
2022-11-03T11:58:42.557Z,29.35
2022-11-03T12:03:44.581Z,17.75
2022-11-03T12:08:45.401Z,15.65
2022-11-03T12:13:50.460Z,15.32
2022-11-03T12:18:52.022Z,13.93
2022-11-03T12:23:52.839Z,15.30
2022-11-03T12:28:56.738Z,15.40
2022-11-03T12:33:57.561Z,16.12
2022-11-03T12:38:58.312Z,14.18
2022-11-03T12:44:02.205Z,15.05
2022-11-03T12:49:03.208Z,15.13
2022-11-03T12:54:05.899Z,15.60
2022-11-03T12:59:07.205Z,15.77
2022-11-03T13:04:09.955Z,14.57
2022-11-03T13:09:11.165Z,16.83
2022-11-03T13:14:11.892Z,15.93
2022-11-03T13:19:12.652Z,15.20
2022-11-03T13:24:21.208Z,12.73
2022-11-03T13:29:21.985Z,12.25
2022-11-03T13:34:23.175Z,11.63
2022-11-03T13:39:23.990Z,11.40
2022-11-03T13:44:24.856Z,12.25
2022-11-03T14:00:27.344Z,11.20
2022-11-03T14:05:28.389Z,10.23
2022-11-03T14:10:32.134Z,11.18
2022-11-03T14:15:35.635Z,11.48
2022-11-03T14:20:39.390Z,14.70
2022-11-03T14:25:40.297Z,12.07
2022-11-03T14:30:41.242Z,16.95
2022-11-03T14:35:41.979Z,12.40
2022-11-03T14:41:01.308Z,11.63
2022-11-03T14:46:02.275Z,13.73
2022-11-03T14:51:03.333Z,12.85
2022-11-03T14:56:04.648Z,15.05
2022-11-03T15:01:05.861Z,17.27
2022-11-03T15:06:07.417Z,12.73
2022-11-03T15:11:11.198Z,12.77
2022-11-03T15:16:15.217Z,12.02
2022-11-03T15:21:18.717Z,13.23
2022-11-03T15:26:19.807Z,12.10
2022-11-03T15:31:23.222Z,12.07
2022-11-03T15:36:24.318Z,12.27
2022-11-03T15:41:25.093Z,11.40
2022-11-03T15:46:26.217Z,12.32
2022-11-03T15:51:27.083Z,11.55
2022-11-03T15:56:29.199Z,11.57
2022-11-03T16:01:30.298Z,13.70
2022-11-03T16:07:06.674Z,20.50
2022-11-03T16:12:11.133Z,12.27
2022-11-03T16:17:12.034Z,12.40
2022-11-03T16:22:12.862Z,12.93
2022-11-03T16:27:13.789Z,15.25
2022-11-03T16:32:14.518Z,15.00
2022-11-03T16:37:15.547Z,15.15
2022-11-03T16:42:16.290Z,14.85
2022-11-03T16:47:17.078Z,13.57
2022-11-03T16:52:17.801Z,13.85
2022-11-03T16:57:18.842Z,15.25
2022-11-03T17:02:19.944Z,15.13
2022-11-03T17:07:20.797Z,15.38
2022-11-03T17:12:21.620Z,12.50
2022-11-03T17:17:22.665Z,14.10
2022-11-03T17:22:23.641Z,12.82
2022-11-03T17:28:18.060Z,10.65
2022-11-03T17:33:18.860Z,11.05
2022-11-03T17:38:20.131Z,10.90
2022-11-03T17:43:30.536Z,12.13
2022-11-03T17:48:34.276Z,16.48
2022-11-03T17:53:35.108Z,19.30
2022-11-03T17:58:45.951Z,12.85
2022-11-03T18:03:47.646Z,18.37
2022-11-03T18:08:49.450Z,19.58
2022-11-03T18:13:50.326Z,13.43
2022-11-03T18:18:51.246Z,13.75
2022-11-03T18:23:52.268Z,17.20
2022-11-03T18:28:53.581Z,17.17
2022-11-03T18:33:54.588Z,15.25
2022-11-03T18:38:59.701Z,17.75
2022-11-03T18:44:17.691Z,20.70
2022-11-03T18:49:22.157Z,13.80
2022-11-03T18:54:29.572Z,13.18
2022-11-03T18:59:39.815Z,12.13
2022-11-03T19:04:43.384Z,10.80
2022-11-03T19:09:46.769Z,12.23
2022-11-03T19:14:48.903Z,12.23
2022-11-03T19:19:49.655Z,13.90
2022-11-03T19:24:56.164Z,13.80
2022-11-03T19:29:58.867Z,12.95
2022-11-03T19:35:07.797Z,14.43
2022-11-03T19:40:17.583Z,14.02
2022-11-03T19:45:20.440Z,16.00
2022-11-03T19:50:28.300Z,17.40
2022-11-03T19:55:38.317Z,17.85
2022-11-03T20:00:39.659Z,17.02
2022-11-03T20:05:45.137Z,17.05
2022-11-03T20:10:53.604Z,18.80
2022-11-03T20:16:00.960Z,17.92
2022-11-03T20:21:05.246Z,18.08
2022-11-03T20:26:12.476Z,17.00
2022-11-03T20:31:14.267Z,18.65
2022-11-03T20:36:18.622Z,18.25
2022-11-03T20:41:23.532Z,17.60
2022-11-03T20:46:31.288Z,12.27
2022-11-03T20:51:53.840Z,12.27
2022-11-03T20:56:54.716Z,11.43
2022-11-03T21:01:56.576Z,13.82
2022-11-03T21:06:57.491Z,10.82
2022-11-03T21:11:58.272Z,12.37
2022-11-03T21:17:17.417Z,11.20
2022-11-03T21:22:54.704Z,11.40
2022-11-03T21:27:58.647Z,11.55
2022-11-03T21:33:02.631Z,10.00
2022-11-03T21:38:04.127Z,11.00
2022-11-03T21:43:30.225Z,11.27
2022-11-03T21:48:49.509Z,8.75
2022-11-03T21:53:55.577Z,7.55
2022-11-03T21:58:57.166Z,10.80
2022-11-03T22:04:03.594Z,10.15
2022-11-03T22:09:04.516Z,7.15
2022-11-03T22:14:08.272Z,5.05
2022-11-03T22:19:36.742Z,4.78
2022-11-03T22:24:59.428Z,2.83
2022-11-03T22:30:18.722Z,2.60
2022-11-03T22:35:41.204Z,3.25
2022-11-03T22:41:03.899Z,2.37
2022-11-03T22:46:10.171Z,2.33
2022-11-03T22:51:13.835Z,3.28
2022-11-03T22:56:15.270Z,2.00
2022-11-03T23:01:21.520Z,2.20
2022-11-03T23:06:27.972Z,7.25
2022-11-03T23:11:34.545Z,2.83
2022-11-03T23:16:38.772Z,3.25
2022-11-03T23:21:39.862Z,3.95
2022-11-03T23:26:41.067Z,3.70
2022-11-03T23:31:44.037Z,2.28
2022-11-03T23:36:47.257Z,2.25
2022-11-03T23:41:52.269Z,1.70
2022-11-03T23:47:11.915Z,1.83
2022-11-03T23:52:15.395Z,2.12
2022-11-03T23:57:37.058Z,1.20
